sensor_id;sensor_type;location;lat;lon;timestamp;P1;durP1;ratioP1;P2;durP2;ratioP2
26311;SDS011;14019;56.964;24.016;2023-05-29T00:01:19;11.43;;;4.07;;
26311;SDS011;14019;56.964;24.016;2023-05-29T00:04:07;11.40;;;3.40;;
26311;SDS011;14019;56.964;24.016;2023-05-29T00:06:54;10.73;;;3.90;;
26311;SDS011;14019;56.964;24.016;2023-05-29T00:09:40;9.98;;;3.50;;
26311;SDS011;14019;56.964;24.016;2023-05-29T00:12:26;10.27;;;3.25;;
26311;SDS011;14019;56.964;24.016;2023-05-29T00:15:13;10.55;;;3.70;;
26311;SDS011;14019;56.964;24.016;2023-05-29T00:17:59;9.90;;;3.28;;
26311;SDS011;14019;56.964;24.016;2023-05-29T00:20:47;9.20;;;3.50;;
26311;SDS011;14019;56.964;24.016;2023-05-29T00:23:34;9.80;;;3.35;;
26311;SDS011;14019;56.964;24.016;2023-05-29T00:26:20;13.13;;;3.60;;
26311;SDS011;14019;56.964;24.016;2023-05-29T00:29:11;9.55;;;3.55;;
26311;SDS011;14019;56.964;24.016;2023-05-29T00:31:58;12.30;;;3.53;;
26311;SDS011;14019;56.964;24.016;2023-05-29T00:34:46;7.63;;;3.38;;
26311;SDS011;14019;56.964;24.016;2023-05-29T00:37:32;8.45;;;3.20;;
26311;SDS011;14019;56.964;24.016;2023-05-29T00:40:19;10.68;;;3.58;;
26311;SDS011;14019;56.964;24.016;2023-05-29T00:43:06;8.85;;;3.03;;
26311;SDS011;14019;56.964;24.016;2023-05-29T00:45:52;9.00;;;3.45;;
26311;SDS011;14019;56.964;24.016;2023-05-29T00:48:39;9.23;;;3.50;;
26311;SDS011;14019;56.964;24.016;2023-05-29T00:51:26;9.65;;;3.30;;
26311;SDS011;14019;56.964;24.016;2023-05-29T00:54:14;9.90;;;3.13;;
26311;SDS011;14019;56.964;24.016;2023-05-29T00:57:03;6.95;;;3.28;;
26311;SDS011;14019;56.964;24.016;2023-05-29T00:59:50;7.78;;;3.33;;
26311;SDS011;14019;56.964;24.016;2023-05-29T01:02:37;8.30;;;3.33;;
26311;SDS011;14019;56.964;24.016;2023-05-29T01:05:24;9.93;;;2.97;;
26311;SDS011;14019;56.964;24.016;2023-05-29T01:08:11;10.68;;;3.45;;
26311;SDS011;14019;56.964;24.016;2023-05-29T01:11:02;8.45;;;3.35;;
26311;SDS011;14019;56.964;24.016;2023-05-29T01:13:51;11.63;;;3.40;;
26311;SDS011;14019;56.964;24.016;2023-05-29T01:16:51;11.90;;;3.42;;
26311;SDS011;14019;56.964;24.016;2023-05-29T01:19:45;10.57;;;3.30;;
26311;SDS011;14019;56.964;24.016;2023-05-29T01:25:35;7.82;;;3.38;;
26311;SDS011;14019;56.964;24.016;2023-05-29T01:28:30;6.78;;;3.20;;
26311;SDS011;14019;56.964;24.016;2023-05-29T01:31:21;7.20;;;3.00;;
26311;SDS011;14019;56.964;24.016;2023-05-29T01:34:08;8.07;;;3.17;;
26311;SDS011;14019;56.964;24.016;2023-05-29T01:36:56;8.48;;;3.13;;
26311;SDS011;14019;56.964;24.016;2023-05-29T01:39:42;11.45;;;3.15;;
26311;SDS011;14019;56.964;24.016;2023-05-29T01:42:29;13.25;;;3.53;;
26311;SDS011;14019;56.964;24.016;2023-05-29T01:45:15;10.60;;;3.53;;
26311;SDS011;14019;56.964;24.016;2023-05-29T01:48:04;12.43;;;3.30;;
26311;SDS011;14019;56.964;24.016;2023-05-29T01:50:52;12.00;;;3.72;;
26311;SDS011;14019;56.964;24.016;2023-05-29T01:53:42;10.27;;;3.55;;
26311;SDS011;14019;56.964;24.016;2023-05-29T01:56:29;11.20;;;3.20;;
26311;SDS011;14019;56.964;24.016;2023-05-29T01:59:16;7.80;;;3.05;;
26311;SDS011;14019;56.964;24.016;2023-05-29T02:02:09;7.32;;;3.58;;
26311;SDS011;14019;56.964;24.016;2023-05-29T02:04:57;13.27;;;3.42;;
26311;SDS011;14019;56.964;24.016;2023-05-29T02:07:44;9.15;;;3.45;;
26311;SDS011;14019;56.964;24.016;2023-05-29T02:10:31;9.73;;;3.20;;
26311;SDS011;14019;56.964;24.016;2023-05-29T02:13:18;8.88;;;3.40;;
26311;SDS011;14019;56.964;24.016;2023-05-29T02:16:04;7.10;;;3.30;;
26311;SDS011;14019;56.964;24.016;2023-05-29T02:18:51;12.38;;;3.63;;
26311;SDS011;14019;56.964;24.016;2023-05-29T02:21:38;7.88;;;3.45;;
26311;SDS011;14019;56.964;24.016;2023-05-29T02:24:26;13.32;;;3.17;;
26311;SDS011;14019;56.964;24.016;2023-05-29T02:27:12;7.88;;;3.13;;
26311;SDS011;14019;56.964;24.016;2023-05-29T02:29:59;10.27;;;3.47;;
26311;SDS011;14019;56.964;24.016;2023-05-29T02:32:46;11.52;;;3.55;;
26311;SDS011;14019;56.964;24.016;2023-05-29T02:35:33;10.00;;;3.60;;
26311;SDS011;14019;56.964;24.016;2023-05-29T02:38:22;7.13;;;3.08;;
26311;SDS011;14019;56.964;24.016;2023-05-29T02:41:09;12.23;;;3.38;;
26311;SDS011;14019;56.964;24.016;2023-05-29T02:43:56;18.17;;;3.60;;
26311;SDS011;14019;56.964;24.016;2023-05-29T02:46:42;12.10;;;3.28;;
26311;SDS011;14019;56.964;24.016;2023-05-29T02:49:29;10.77;;;3.60;;
26311;SDS011;14019;56.964;24.016;2023-05-29T02:52:16;13.25;;;3.60;;
26311;SDS011;14019;56.964;24.016;2023-05-29T02:55:02;9.68;;;3.20;;
26311;SDS011;14019;56.964;24.016;2023-05-29T02:57:49;8.30;;;3.78;;
26311;SDS011;14019;56.964;24.016;2023-05-29T03:00:38;14.75;;;4.65;;
26311;SDS011;14019;56.964;24.016;2023-05-29T03:03:24;9.35;;;3.67;;
26311;SDS011;14019;56.964;24.016;2023-05-29T03:06:11;8.93;;;3.85;;
26311;SDS011;14019;56.964;24.016;2023-05-29T03:08:58;14.00;;;4.45;;
26311;SDS011;14019;56.964;24.016;2023-05-29T03:11:45;11.65;;;4.10;;
26311;SDS011;14019;56.964;24.016;2023-05-29T03:14:33;14.73;;;4.00;;
26311;SDS011;14019;56.964;24.016;2023-05-29T03:17:26;12.85;;;3.75;;
26311;SDS011;14019;56.964;24.016;2023-05-29T03:20:14;10.13;;;3.88;;
26311;SDS011;14019;56.964;24.016;2023-05-29T03:23:02;12.52;;;4.00;;
26311;SDS011;14019;56.964;24.016;2023-05-29T03:25:50;16.13;;;4.15;;
26311;SDS011;14019;56.964;24.016;2023-05-29T03:28:37;9.75;;;3.67;;
26311;SDS011;14019;56.964;24.016;2023-05-29T03:31:26;9.70;;;3.78;;
26311;SDS011;14019;56.964;24.016;2023-05-29T03:34:13;12.07;;;3.40;;
26311;SDS011;14019;56.964;24.016;2023-05-29T03:37:03;7.68;;;3.15;;
26311;SDS011;14019;56.964;24.016;2023-05-29T03:39:49;11.70;;;3.55;;
26311;SDS011;14019;56.964;24.016;2023-05-29T03:42:36;8.23;;;3.38;;
26311;SDS011;14019;56.964;24.016;2023-05-29T03:45:22;11.60;;;3.40;;
26311;SDS011;14019;56.964;24.016;2023-05-29T03:48:09;11.18;;;3.25;;
26311;SDS011;14019;56.964;24.016;2023-05-29T03:50:56;8.40;;;3.25;;
26311;SDS011;14019;56.964;24.016;2023-05-29T03:53:48;9.10;;;3.40;;
26311;SDS011;14019;56.964;24.016;2023-05-29T03:56:36;11.25;;;3.10;;
26311;SDS011;14019;56.964;24.016;2023-05-29T03:59:22;9.88;;;3.28;;
26311;SDS011;14019;56.964;24.016;2023-05-29T04:02:09;11.27;;;3.30;;
26311;SDS011;14019;56.964;24.016;2023-05-29T04:04:59;8.48;;;3.22;;
26311;SDS011;14019;56.964;24.016;2023-05-29T04:07:46;10.00;;;3.05;;
26311;SDS011;14019;56.964;24.016;2023-05-29T04:10:32;13.45;;;3.33;;
26311;SDS011;14019;56.964;24.016;2023-05-29T04:13:20;8.35;;;3.50;;
26311;SDS011;14019;56.964;24.016;2023-05-29T04:16:07;11.25;;;3.33;;
26311;SDS011;14019;56.964;24.016;2023-05-29T04:18:54;9.43;;;3.33;;
26311;SDS011;14019;56.964;24.016;2023-05-29T04:21:43;11.63;;;3.72;;
26311;SDS011;14019;56.964;24.016;2023-05-29T04:24:29;10.10;;;3.40;;
26311;SDS011;14019;56.964;24.016;2023-05-29T04:27:17;8.98;;;3.15;;
26311;SDS011;14019;56.964;24.016;2023-05-29T04:30:04;8.68;;;3.17;;
26311;SDS011;14019;56.964;24.016;2023-05-29T04:32:55;10.98;;;3.65;;
26311;SDS011;14019;56.964;24.016;2023-05-29T04:35:45;10.13;;;3.40;;
26311;SDS011;14019;56.964;24.016;2023-05-29T04:38:35;12.07;;;3.47;;
26311;SDS011;14019;56.964;24.016;2023-05-29T04:41:25;16.88;;;3.22;;
26311;SDS011;14019;56.964;24.016;2023-05-29T04:44:15;10.10;;;3.47;;
26311;SDS011;14019;56.964;24.016;2023-05-29T04:47:05;11.27;;;3.58;;
26311;SDS011;14019;56.964;24.016;2023-05-29T04:49:51;10.98;;;3.90;;
26311;SDS011;14019;56.964;24.016;2023-05-29T04:52:39;8.35;;;3.42;;
26311;SDS011;14019;56.964;24.016;2023-05-29T04:55:27;10.10;;;3.90;;
26311;SDS011;14019;56.964;24.016;2023-05-29T04:58:14;7.50;;;3.25;;
26311;SDS011;14019;56.964;24.016;2023-05-29T05:01:12;8.80;;;3.53;;
26311;SDS011;14019;56.964;24.016;2023-05-29T05:04:33;8.32;;;3.72;;
26311;SDS011;14019;56.964;24.016;2023-05-29T05:10:32;10.73;;;3.53;;
26311;SDS011;14019;56.964;24.016;2023-05-29T05:13:21;12.68;;;3.85;;
26311;SDS011;14019;56.964;24.016;2023-05-29T05:16:18;9.15;;;3.85;;
26311;SDS011;14019;56.964;24.016;2023-05-29T05:19:30;8.90;;;3.60;;
26311;SDS011;14019;56.964;24.016;2023-05-29T05:22:17;9.68;;;3.63;;
26311;SDS011;14019;56.964;24.016;2023-05-29T05:25:06;7.80;;;3.60;;
26311;SDS011;14019;56.964;24.016;2023-05-29T05:27:53;9.13;;;3.30;;
26311;SDS011;14019;56.964;24.016;2023-05-29T05:30:42;11.85;;;3.63;;
26311;SDS011;14019;56.964;24.016;2023-05-29T05:33:29;6.72;;;3.55;;
26311;SDS011;14019;56.964;24.016;2023-05-29T05:36:16;7.93;;;3.70;;
26311;SDS011;14019;56.964;24.016;2023-05-29T05:39:03;11.25;;;3.92;;
26311;SDS011;14019;56.964;24.016;2023-05-29T05:41:51;13.98;;;3.38;;
26311;SDS011;14019;56.964;24.016;2023-05-29T05:45:01;10.35;;;3.50;;
26311;SDS011;14019;56.964;24.016;2023-05-29T05:47:49;8.77;;;3.50;;
26311;SDS011;14019;56.964;24.016;2023-05-29T05:50:39;9.52;;;3.15;;
26311;SDS011;14019;56.964;24.016;2023-05-29T05:53:25;6.13;;;3.42;;
26311;SDS011;14019;56.964;24.016;2023-05-29T05:56:12;9.60;;;3.35;;
26311;SDS011;14019;56.964;24.016;2023-05-29T05:58:59;7.43;;;3.38;;
26311;SDS011;14019;56.964;24.016;2023-05-29T06:01:46;5.40;;;3.08;;
26311;SDS011;14019;56.964;24.016;2023-05-29T06:04:32;8.45;;;3.22;;
26311;SDS011;14019;56.964;24.016;2023-05-29T06:07:19;11.93;;;3.75;;
26311;SDS011;14019;56.964;24.016;2023-05-29T06:10:06;8.93;;;3.33;;
26311;SDS011;14019;56.964;24.016;2023-05-29T06:12:52;9.70;;;3.65;;
26311;SDS011;14019;56.964;24.016;2023-05-29T06:15:46;9.77;;;3.30;;
26311;SDS011;14019;56.964;24.016;2023-05-29T06:18:32;6.65;;;3.00;;
26311;SDS011;14019;56.964;24.016;2023-05-29T06:21:18;7.55;;;3.03;;
26311;SDS011;14019;56.964;24.016;2023-05-29T06:24:10;6.43;;;3.28;;
26311;SDS011;14019;56.964;24.016;2023-05-29T06:27:03;6.85;;;3.03;;
26311;SDS011;14019;56.964;24.016;2023-05-29T06:29:50;9.82;;;3.38;;
26311;SDS011;14019;56.964;24.016;2023-05-29T06:32:40;6.30;;;3.00;;
26311;SDS011;14019;56.964;24.016;2023-05-29T06:44:32;5.47;;;2.92;;
26311;SDS011;14019;56.964;24.016;2023-05-29T06:47:18;8.25;;;3.13;;
26311;SDS011;14019;56.964;24.016;2023-05-29T06:50:05;6.75;;;3.25;;
26311;SDS011;14019;56.964;24.016;2023-05-29T07:04:26;8.05;;;3.72;;
26311;SDS011;14019;56.964;24.016;2023-05-29T07:07:45;7.85;;;3.53;;
26311;SDS011;14019;56.964;24.016;2023-05-29T07:10:33;7.35;;;3.40;;
26311;SDS011;14019;56.964;24.016;2023-05-29T07:13:19;6.80;;;3.40;;
26311;SDS011;14019;56.964;24.016;2023-05-29T07:16:06;10.98;;;3.42;;
26311;SDS011;14019;56.964;24.016;2023-05-29T07:19:12;8.02;;;3.30;;
26311;SDS011;14019;56.964;24.016;2023-05-29T07:22:07;8.57;;;3.33;;
26311;SDS011;14019;56.964;24.016;2023-05-29T07:28:11;9.88;;;3.20;;
26311;SDS011;14019;56.964;24.016;2023-05-29T07:31:07;7.53;;;3.17;;
26311;SDS011;14019;56.964;24.016;2023-05-29T07:33:55;9.15;;;3.35;;
26311;SDS011;14019;56.964;24.016;2023-05-29T07:37:00;9.48;;;3.75;;
26311;SDS011;14019;56.964;24.016;2023-05-29T07:39:50;7.68;;;3.17;;
26311;SDS011;14019;56.964;24.016;2023-05-29T07:42:55;7.28;;;2.85;;
26311;SDS011;14019;56.964;24.016;2023-05-29T07:45:46;9.00;;;3.25;;
26311;SDS011;14019;56.964;24.016;2023-05-29T07:48:33;8.98;;;3.20;;
26311;SDS011;14019;56.964;24.016;2023-05-29T07:51:20;6.93;;;3.10;;
26311;SDS011;14019;56.964;24.016;2023-05-29T07:54:08;8.18;;;3.55;;
26311;SDS011;14019;56.964;24.016;2023-05-29T07:56:55;8.88;;;2.70;;
26311;SDS011;14019;56.964;24.016;2023-05-29T08:00:03;8.25;;;2.97;;
26311;SDS011;14019;56.964;24.016;2023-05-29T08:03:03;8.40;;;2.85;;
26311;SDS011;14019;56.964;24.016;2023-05-29T08:06:09;6.15;;;3.17;;
26311;SDS011;14019;56.964;24.016;2023-05-29T08:08:57;7.47;;;3.03;;
26311;SDS011;14019;56.964;24.016;2023-05-29T08:11:43;5.47;;;2.83;;
26311;SDS011;14019;56.964;24.016;2023-05-29T08:14:35;4.95;;;2.85;;
26311;SDS011;14019;56.964;24.016;2023-05-29T08:17:56;8.65;;;2.72;;
26311;SDS011;14019;56.964;24.016;2023-05-29T08:20:42;8.02;;;3.15;;
26311;SDS011;14019;56.964;24.016;2023-05-29T08:23:30;11.02;;;3.80;;
26311;SDS011;14019;56.964;24.016;2023-05-29T08:26:19;7.70;;;3.03;;
26311;SDS011;14019;56.964;24.016;2023-05-29T08:29:06;8.18;;;3.20;;
26311;SDS011;14019;56.964;24.016;2023-05-29T08:31:52;8.05;;;2.80;;
26311;SDS011;14019;56.964;24.016;2023-05-29T08:34:38;8.63;;;3.20;;
26311;SDS011;14019;56.964;24.016;2023-05-29T08:37:26;8.48;;;2.70;;
26311;SDS011;14019;56.964;24.016;2023-05-29T08:40:13;8.80;;;3.03;;
26311;SDS011;14019;56.964;24.016;2023-05-29T08:42:59;7.28;;;2.90;;
26311;SDS011;14019;56.964;24.016;2023-05-29T08:45:52;7.38;;;2.80;;
26311;SDS011;14019;56.964;24.016;2023-05-29T08:48:39;7.25;;;3.22;;
26311;SDS011;14019;56.964;24.016;2023-05-29T08:51:27;8.43;;;3.00;;
26311;SDS011;14019;56.964;24.016;2023-05-29T08:54:17;9.00;;;2.90;;
26311;SDS011;14019;56.964;24.016;2023-05-29T08:57:04;5.63;;;2.90;;
26311;SDS011;14019;56.964;24.016;2023-05-29T08:59:51;5.70;;;3.05;;
26311;SDS011;14019;56.964;24.016;2023-05-29T09:02:39;7.25;;;3.13;;
26311;SDS011;14019;56.964;24.016;2023-05-29T09:05:25;9.93;;;3.17;;
26311;SDS011;14019;56.964;24.016;2023-05-29T09:08:16;7.68;;;3.00;;
26311;SDS011;14019;56.964;24.016;2023-05-29T09:11:02;8.20;;;3.00;;
26311;SDS011;14019;56.964;24.016;2023-05-29T09:13:48;8.00;;;3.08;;
26311;SDS011;14019;56.964;24.016;2023-05-29T09:16:40;6.28;;;2.85;;
26311;SDS011;14019;56.964;24.016;2023-05-29T09:19:29;6.18;;;3.10;;
26311;SDS011;14019;56.964;24.016;2023-05-29T09:22:29;7.03;;;3.38;;
26311;SDS011;14019;56.964;24.016;2023-05-29T09:25:22;5.40;;;2.88;;
26311;SDS011;14019;56.964;24.016;2023-05-29T09:28:09;6.18;;;2.85;;
26311;SDS011;14019;56.964;24.016;2023-05-29T09:31:20;6.05;;;2.78;;
26311;SDS011;14019;56.964;24.016;2023-05-29T09:34:07;6.68;;;3.03;;
26311;SDS011;14019;56.964;24.016;2023-05-29T09:36:53;4.18;;;2.50;;
26311;SDS011;14019;56.964;24.016;2023-05-29T09:39:52;6.30;;;3.00;;
26311;SDS011;14019;56.964;24.016;2023-05-29T09:42:39;6.45;;;2.63;;
26311;SDS011;14019;56.964;24.016;2023-05-29T09:45:25;8.82;;;2.60;;
26311;SDS011;14019;56.964;24.016;2023-05-29T09:48:13;5.90;;;2.65;;
26311;SDS011;14019;56.964;24.016;2023-05-29T09:51:00;6.97;;;2.45;;
26311;SDS011;14019;56.964;24.016;2023-05-29T09:53:48;5.78;;;2.67;;
26311;SDS011;14019;56.964;24.016;2023-05-29T09:56:36;8.85;;;2.63;;
26311;SDS011;14019;56.964;24.016;2023-05-29T09:59:23;4.63;;;2.80;;
26311;SDS011;14019;56.964;24.016;2023-05-29T10:02:10;11.23;;;2.90;;
26311;SDS011;14019;56.964;24.016;2023-05-29T10:04:59;6.20;;;2.88;;
26311;SDS011;14019;56.964;24.016;2023-05-29T10:07:49;4.78;;;2.72;;
26311;SDS011;14019;56.964;24.016;2023-05-29T10:10:42;5.13;;;2.70;;
26311;SDS011;14019;56.964;24.016;2023-05-29T10:13:31;6.50;;;2.67;;
26311;SDS011;14019;56.964;24.016;2023-05-29T10:16:22;4.77;;;2.33;;
26311;SDS011;14019;56.964;24.016;2023-05-29T10:19:11;4.95;;;2.30;;
26311;SDS011;14019;56.964;24.016;2023-05-29T10:22:00;5.57;;;2.58;;
26311;SDS011;14019;56.964;24.016;2023-05-29T10:24:48;2.75;;;2.20;;
26311;SDS011;14019;56.964;24.016;2023-05-29T10:27:36;7.68;;;2.50;;
26311;SDS011;14019;56.964;24.016;2023-05-29T10:33:26;6.75;;;2.40;;
26311;SDS011;14019;56.964;24.016;2023-05-29T10:36:18;4.82;;;2.50;;
26311;SDS011;14019;56.964;24.016;2023-05-29T10:39:07;5.72;;;2.55;;
26311;SDS011;14019;56.964;24.016;2023-05-29T10:41:53;6.65;;;2.33;;
26311;SDS011;14019;56.964;24.016;2023-05-29T10:44:43;4.13;;;2.03;;
26311;SDS011;14019;56.964;24.016;2023-05-29T10:47:30;7.00;;;2.78;;
26311;SDS011;14019;56.964;24.016;2023-05-29T10:50:19;6.75;;;2.35;;
26311;SDS011;14019;56.964;24.016;2023-05-29T10:53:24;6.97;;;2.75;;
26311;SDS011;14019;56.964;24.016;2023-05-29T10:59:01;4.75;;;2.60;;
26311;SDS011;14019;56.964;24.016;2023-05-29T11:01:47;6.65;;;2.45;;
26311;SDS011;14019;56.964;24.016;2023-05-29T11:04:39;8.48;;;2.60;;
26311;SDS011;14019;56.964;24.016;2023-05-29T11:07:33;5.05;;;2.80;;
26311;SDS011;14019;56.964;24.016;2023-05-29T11:13:26;7.55;;;2.60;;
26311;SDS011;14019;56.964;24.016;2023-05-29T11:19:07;7.63;;;2.20;;
26311;SDS011;14019;56.964;24.016;2023-05-29T11:22:05;4.15;;;2.00;;
26311;SDS011;14019;56.964;24.016;2023-05-29T11:24:52;5.85;;;2.40;;
26311;SDS011;14019;56.964;24.016;2023-05-29T11:27:39;5.05;;;2.30;;
26311;SDS011;14019;56.964;24.016;2023-05-29T11:30:26;6.10;;;2.30;;
26311;SDS011;14019;56.964;24.016;2023-05-29T11:33:25;7.55;;;2.60;;
26311;SDS011;14019;56.964;24.016;2023-05-29T11:36:12;6.90;;;2.33;;
26311;SDS011;14019;56.964;24.016;2023-05-29T11:38:58;7.10;;;2.70;;
26311;SDS011;14019;56.964;24.016;2023-05-29T11:41:49;3.38;;;2.03;;
26311;SDS011;14019;56.964;24.016;2023-05-29T11:44:37;6.50;;;2.60;;
26311;SDS011;14019;56.964;24.016;2023-05-29T11:47:23;8.48;;;2.70;;
26311;SDS011;14019;56.964;24.016;2023-05-29T11:50:23;4.88;;;2.30;;
26311;SDS011;14019;56.964;24.016;2023-05-29T11:53:11;7.13;;;2.60;;
26311;SDS011;14019;56.964;24.016;2023-05-29T11:56:07;4.10;;;2.70;;
26311;SDS011;14019;56.964;24.016;2023-05-29T11:58:56;5.18;;;2.50;;
26311;SDS011;14019;56.964;24.016;2023-05-29T12:01:44;4.88;;;2.30;;
26311;SDS011;14019;56.964;24.016;2023-05-29T12:04:32;5.63;;;2.40;;
26311;SDS011;14019;56.964;24.016;2023-05-29T12:07:18;5.55;;;2.70;;
26311;SDS011;14019;56.964;24.016;2023-05-29T12:10:08;3.95;;;2.45;;
26311;SDS011;14019;56.964;24.016;2023-05-29T12:12:57;5.47;;;2.58;;
26311;SDS011;14019;56.964;24.016;2023-05-29T12:15:44;5.57;;;2.42;;
26311;SDS011;14019;56.964;24.016;2023-05-29T12:18:30;3.40;;;2.13;;
26311;SDS011;14019;56.964;24.016;2023-05-29T12:21:17;4.50;;;2.60;;
26311;SDS011;14019;56.964;24.016;2023-05-29T12:24:04;4.30;;;2.40;;
26311;SDS011;14019;56.964;24.016;2023-05-29T12:26:59;4.75;;;2.40;;
26311;SDS011;14019;56.964;24.016;2023-05-29T12:29:46;5.18;;;2.47;;
26311;SDS011;14019;56.964;24.016;2023-05-29T12:32:37;6.70;;;2.53;;
26311;SDS011;14019;56.964;24.016;2023-05-29T12:35:24;8.02;;;3.25;;
26311;SDS011;14019;56.964;24.016;2023-05-29T12:38:11;7.78;;;2.90;;
26311;SDS011;14019;56.964;24.016;2023-05-29T12:40:58;9.80;;;3.08;;
26311;SDS011;14019;56.964;24.016;2023-05-29T12:43:45;3.97;;;2.40;;
26311;SDS011;14019;56.964;24.016;2023-05-29T12:46:38;5.25;;;2.50;;
26311;SDS011;14019;56.964;24.016;2023-05-29T12:49:26;5.00;;;2.65;;
26311;SDS011;14019;56.964;24.016;2023-05-29T12:52:15;6.82;;;2.40;;
26311;SDS011;14019;56.964;24.016;2023-05-29T12:58:38;3.42;;;2.22;;
26311;SDS011;14019;56.964;24.016;2023-05-29T13:01:39;4.65;;;2.63;;
26311;SDS011;14019;56.964;24.016;2023-05-29T13:04:41;4.43;;;2.60;;
26311;SDS011;14019;56.964;24.016;2023-05-29T13:07:27;8.23;;;2.70;;
26311;SDS011;14019;56.964;24.016;2023-05-29T13:10:17;7.03;;;2.50;;
26311;SDS011;14019;56.964;24.016;2023-05-29T13:13:03;7.15;;;2.53;;
26311;SDS011;14019;56.964;24.016;2023-05-29T13:15:54;6.10;;;2.47;;
26311;SDS011;14019;56.964;24.016;2023-05-29T13:18:41;5.90;;;2.65;;
26311;SDS011;14019;56.964;24.016;2023-05-29T13:21:28;8.38;;;2.65;;
26311;SDS011;14019;56.964;24.016;2023-05-29T13:24:14;7.38;;;2.50;;
26311;SDS011;14019;56.964;24.016;2023-05-29T13:27:00;6.60;;;2.95;;
26311;SDS011;14019;56.964;24.016;2023-05-29T13:29:47;6.35;;;2.67;;
26311;SDS011;14019;56.964;24.016;2023-05-29T13:32:34;6.68;;;2.83;;
26311;SDS011;14019;56.964;24.016;2023-05-29T13:35:20;4.97;;;2.53;;
26311;SDS011;14019;56.964;24.016;2023-05-29T13:38:07;4.75;;;2.55;;
26311;SDS011;14019;56.964;24.016;2023-05-29T13:40:53;5.45;;;2.97;;
26311;SDS011;14019;56.964;24.016;2023-05-29T13:43:40;7.88;;;3.10;;
26311;SDS011;14019;56.964;24.016;2023-05-29T13:46:29;6.10;;;2.58;;
26311;SDS011;14019;56.964;24.016;2023-05-29T13:49:16;11.77;;;3.30;;
26311;SDS011;14019;56.964;24.016;2023-05-29T13:52:02;9.07;;;2.65;;
26311;SDS011;14019;56.964;24.016;2023-05-29T13:54:50;5.03;;;2.95;;
26311;SDS011;14019;56.964;24.016;2023-05-29T13:57:36;6.00;;;2.70;;
26311;SDS011;14019;56.964;24.016;2023-05-29T14:00:23;7.75;;;2.72;;
26311;SDS011;14019;56.964;24.016;2023-05-29T14:03:09;11.30;;;3.10;;
26311;SDS011;14019;56.964;24.016;2023-05-29T14:05:56;8.23;;;3.22;;
26311;SDS011;14019;56.964;24.016;2023-05-29T14:09:00;5.45;;;2.47;;
26311;SDS011;14019;56.964;24.016;2023-05-29T14:11:47;6.00;;;2.50;;
26311;SDS011;14019;56.964;24.016;2023-05-29T14:14:33;8.68;;;2.80;;
26311;SDS011;14019;56.964;24.016;2023-05-29T14:17:20;5.93;;;2.63;;
26311;SDS011;14019;56.964;24.016;2023-05-29T14:20:06;11.02;;;3.00;;
26311;SDS011;14019;56.964;24.016;2023-05-29T14:22:54;4.95;;;2.78;;
26311;SDS011;14019;56.964;24.016;2023-05-29T14:25:41;3.65;;;2.30;;
26311;SDS011;14019;56.964;24.016;2023-05-29T14:28:27;6.85;;;2.63;;
26311;SDS011;14019;56.964;24.016;2023-05-29T14:31:14;6.70;;;2.92;;
26311;SDS011;14019;56.964;24.016;2023-05-29T14:34:00;4.03;;;2.30;;
26311;SDS011;14019;56.964;24.016;2023-05-29T14:36:46;7.22;;;2.58;;
26311;SDS011;14019;56.964;24.016;2023-05-29T14:39:36;7.38;;;2.60;;
26311;SDS011;14019;56.964;24.016;2023-05-29T14:42:23;5.32;;;2.20;;
26311;SDS011;14019;56.964;24.016;2023-05-29T14:45:09;5.85;;;2.47;;
26311;SDS011;14019;56.964;24.016;2023-05-29T14:47:55;10.27;;;2.30;;
26311;SDS011;14019;56.964;24.016;2023-05-29T14:50:42;4.85;;;2.42;;
26311;SDS011;14019;56.964;24.016;2023-05-29T14:53:28;5.07;;;2.70;;
26311;SDS011;14019;56.964;24.016;2023-05-29T14:56:17;6.63;;;2.50;;
26311;SDS011;14019;56.964;24.016;2023-05-29T14:59:04;9.82;;;2.55;;
26311;SDS011;14019;56.964;24.016;2023-05-29T15:01:50;5.28;;;2.30;;
26311;SDS011;14019;56.964;24.016;2023-05-29T15:04:36;6.03;;;2.30;;
26311;SDS011;14019;56.964;24.016;2023-05-29T15:07:22;4.95;;;2.58;;
26311;SDS011;14019;56.964;24.016;2023-05-29T15:10:09;7.85;;;2.40;;
26311;SDS011;14019;56.964;24.016;2023-05-29T15:12:58;5.30;;;2.30;;
26311;SDS011;14019;56.964;24.016;2023-05-29T15:15:44;8.55;;;2.50;;
26311;SDS011;14019;56.964;24.016;2023-05-29T15:18:33;5.45;;;2.25;;
26311;SDS011;14019;56.964;24.016;2023-05-29T15:21:19;4.47;;;2.17;;
26311;SDS011;14019;56.964;24.016;2023-05-29T15:24:06;10.60;;;2.38;;
26311;SDS011;14019;56.964;24.016;2023-05-29T15:26:52;5.97;;;2.60;;
26311;SDS011;14019;56.964;24.016;2023-05-29T15:29:41;5.45;;;2.70;;
26311;SDS011;14019;56.964;24.016;2023-05-29T15:32:27;5.35;;;2.83;;
26311;SDS011;14019;56.964;24.016;2023-05-29T15:35:14;7.32;;;2.80;;
26311;SDS011;14019;56.964;24.016;2023-05-29T15:38:01;7.03;;;2.50;;
26311;SDS011;14019;56.964;24.016;2023-05-29T15:40:47;5.25;;;2.47;;
26311;SDS011;14019;56.964;24.016;2023-05-29T15:43:35;6.20;;;2.70;;
26311;SDS011;14019;56.964;24.016;2023-05-29T15:46:25;5.03;;;2.40;;
26311;SDS011;14019;56.964;24.016;2023-05-29T15:49:11;5.15;;;3.03;;
26311;SDS011;14019;56.964;24.016;2023-05-29T15:51:58;12.18;;;3.08;;
26311;SDS011;14019;56.964;24.016;2023-05-29T15:54:44;10.60;;;4.90;;
26311;SDS011;14019;56.964;24.016;2023-05-29T15:57:30;6.80;;;3.03;;
26311;SDS011;14019;56.964;24.016;2023-05-29T16:00:19;10.10;;;7.60;;
26311;SDS011;14019;56.964;24.016;2023-05-29T16:03:06;8.95;;;4.30;;
26311;SDS011;14019;56.964;24.016;2023-05-29T16:05:53;8.55;;;3.30;;
26311;SDS011;14019;56.964;24.016;2023-05-29T16:08:40;11.35;;;2.95;;
26311;SDS011;14019;56.964;24.016;2023-05-29T16:11:27;8.13;;;2.67;;
26311;SDS011;14019;56.964;24.016;2023-05-29T16:14:13;7.22;;;2.70;;
26311;SDS011;14019;56.964;24.016;2023-05-29T16:16:59;6.95;;;4.13;;
26311;SDS011;14019;56.964;24.016;2023-05-29T16:19:46;7.03;;;3.10;;
26311;SDS011;14019;56.964;24.016;2023-05-29T16:22:32;11.13;;;6.75;;
26311;SDS011;14019;56.964;24.016;2023-05-29T16:25:25;10.55;;;6.30;;
26311;SDS011;14019;56.964;24.016;2023-05-29T16:28:13;15.23;;;11.00;;
26311;SDS011;14019;56.964;24.016;2023-05-29T16:31:00;16.27;;;11.40;;
26311;SDS011;14019;56.964;24.016;2023-05-29T16:33:46;12.20;;;8.80;;
26311;SDS011;14019;56.964;24.016;2023-05-29T16:36:32;8.63;;;6.53;;
26311;SDS011;14019;56.964;24.016;2023-05-29T16:39:19;8.48;;;5.00;;
26311;SDS011;14019;56.964;24.016;2023-05-29T16:42:07;7.72;;;4.43;;
26311;SDS011;14019;56.964;24.016;2023-05-29T16:44:54;5.18;;;3.17;;
26311;SDS011;14019;56.964;24.016;2023-05-29T16:47:40;6.53;;;3.00;;
26311;SDS011;14019;56.964;24.016;2023-05-29T16:50:27;7.78;;;3.08;;
26311;SDS011;14019;56.964;24.016;2023-05-29T16:53:13;8.55;;;2.67;;
26311;SDS011;14019;56.964;24.016;2023-05-29T16:56:00;7.57;;;2.60;;
26311;SDS011;14019;56.964;24.016;2023-05-29T16:58:46;7.55;;;2.30;;
26311;SDS011;14019;56.964;24.016;2023-05-29T17:01:33;4.47;;;2.50;;
26311;SDS011;14019;56.964;24.016;2023-05-29T17:04:21;6.18;;;2.35;;
26311;SDS011;14019;56.964;24.016;2023-05-29T17:07:07;6.43;;;2.50;;
26311;SDS011;14019;56.964;24.016;2023-05-29T17:09:53;7.00;;;1.92;;
26311;SDS011;14019;56.964;24.016;2023-05-29T17:12:40;4.38;;;2.33;;
26311;SDS011;14019;56.964;24.016;2023-05-29T17:15:31;5.75;;;2.40;;
26311;SDS011;14019;56.964;24.016;2023-05-29T17:18:20;6.43;;;2.55;;
26311;SDS011;14019;56.964;24.016;2023-05-29T17:21:06;6.50;;;2.60;;
26311;SDS011;14019;56.964;24.016;2023-05-29T17:23:52;8.02;;;2.42;;